Time;durP1;ratioP1;P1;durP2;ratioP2;P2;SDS_P1;SDS_P2;PMS_P1;PMS_P2;Temp;Humidity;BMP_temperature;BMP_pressure;BME280_temperature;BME280_humidity;BME280_pressure;Samples;Min_cycle;Max_cycle;Signal;HPM_P1;HPM_P2
2022/05/28 00:00:22;;;;;;;;;;;16.20;64.50;;;;;;5085819;28;19904;-59
2022/05/28 00:02:48;;;;;;;;;;;16.20;65.00;;;;;;5074894;28;20394;-59
2022/05/28 00:05:14;;;;;;;;;;;16.20;64.20;;;;;;5083098;28;19904;-58
2022/05/28 00:07:40;;;;;;;;;;;16.20;63.90;;;;;;5078156;28;19912;-59
2022/05/28 00:10:06;;;;;;;;;;;16.20;63.90;;;;;;5085083;28;19909;-58
2022/05/28 00:12:32;;;;;;;;;;;16.20;63.90;;;;;;5091355;28;20386;-58
2022/05/28 00:14:58;;;;;;;;;;;16.20;64.00;;;;;;5094638;28;19996;-58
2022/05/28 00:17:23;;;;;;;;;;;16.30;64.00;;;;;;5093972;28;19904;-58
2022/05/28 00:19:49;;;;;;;;;;;16.30;63.90;;;;;;5085761;28;20470;-58
2022/05/28 00:22:15;;;;;;;;;;;16.30;63.90;;;;;;5088614;28;19946;-59
2022/05/28 00:24:41;;;;;;;;;;;16.30;63.90;;;;;;5082239;28;19904;-57
2022/05/28 00:27:06;;;;;;;;;;;16.30;63.70;;;;;;5094212;28;19915;-59
2022/05/28 00:29:32;;;;;;;;;;;16.30;63.70;;;;;;5092738;28;19908;-59
2022/05/28 00:31:58;;;;;;;;;;;16.30;63.70;;;;;;5086471;28;20341;-58
2022/05/28 00:34:23;;;;;;;;;;;16.30;63.60;;;;;;5078721;28;19912;-58
2022/05/28 00:36:49;;;;;;;;;;;16.40;63.80;;;;;;5092062;28;19915;-58
2022/05/28 00:39:14;;;;;;;;;;;16.30;63.50;;;;;;5085973;28;20403;-59
2022/05/28 00:41:40;;;;;;;;;;;16.30;63.30;;;;;;5090194;28;20040;-58
2022/05/28 00:44:06;;;;;;;;;;;16.30;63.40;;;;;;5090321;28;20356;-59
2022/05/28 00:46:32;;;;;;;;;;;16.30;63.40;;;;;;5094230;28;19911;-58
2022/05/28 00:49:00;;;;;;;;;;;16.30;63.10;;;;;;5094297;28;19951;-59
2022/05/28 00:51:28;;;;;;;;;;;16.30;63.10;;;;;;5090725;28;19914;-58
2022/05/28 00:53:56;;;;;;;;;;;16.30;62.90;;;;;;5073987;28;19916;-58
2022/05/28 00:56:22;;;;;;;;;;;16.30;63.00;;;;;;5093166;28;19908;-58
2022/05/28 00:58:48;;;;;;;;;;;16.20;63.10;;;;;;5093067;28;19908;-58
2022/05/28 01:01:15;;;;;;;;;;;16.30;63.20;;;;;;5079357;28;19943;-58
2022/05/28 01:03:41;;;;;;;;;;;16.20;63.20;;;;;;5082386;28;19909;-58
2022/05/28 01:06:10;;;;;;;;;;;16.20;63.20;;;;;;5081952;28;19908;-58
2022/05/28 01:08:54;;;;;;;;;;;16.20;63.20;;;;;;5093763;28;19969;-58
2022/05/28 01:11:35;;;;;;;;;;;16.20;63.20;;;;;;5090139;28;19909;-58
2022/05/28 01:14:09;;;;;;;;;;;16.20;63.20;;;;;;5092600;28;19915;-58
2022/05/28 01:16:37;;;;;;;;;;;16.20;63.20;;;;;;5093230;28;19918;-57
2022/05/28 01:19:14;;;;;;;;;;;16.20;63.10;;;;;;5089347;28;19916;-58
2022/05/28 01:21:47;;;;;;;;;;;16.30;63.10;;;;;;5090870;28;20265;-59
2022/05/28 01:24:18;;;;;;;;;;;16.30;63.20;;;;;;5093251;28;19904;-58
2022/05/28 01:26:57;;;;;;;;;;;16.30;63.20;;;;;;5093010;28;19951;-58
2022/05/28 01:29:24;;;;;;;;;;;16.30;63.00;;;;;;5081922;28;19904;-58
2022/05/28 01:31:50;;;;;;;;;;;16.40;63.00;;;;;;5093088;28;19908;-58
2022/05/28 01:34:17;;;;;;;;;;;16.40;62.80;;;;;;5091385;28;19931;-59
2022/05/28 01:36:43;;;;;;;;;;;16.40;62.90;;;;;;5071570;28;19916;-58
2022/05/28 01:39:10;;;;;;;;;;;16.40;62.70;;;;;;5072613;28;19904;-58
2022/05/28 01:41:36;;;;;;;;;;;16.40;62.70;;;;;;5079001;28;19904;-58
2022/05/28 01:44:03;;;;;;;;;;;16.40;62.70;;;;;;5092810;28;19961;-58
2022/05/28 01:46:29;;;;;;;;;;;16.40;62.60;;;;;;5090623;28;19904;-58
2022/05/28 01:48:55;;;;;;;;;;;16.40;62.60;;;;;;5092675;28;19908;-58
2022/05/28 01:51:25;;;;;;;;;;;16.50;62.70;;;;;;5091011;28;19916;-58
2022/05/28 01:54:07;;;;;;;;;;;16.50;62.70;;;;;;5092423;28;19950;-58
2022/05/28 01:56:33;;;;;;;;;;;16.50;62.50;;;;;;5092126;28;19907;-58
2022/05/28 01:58:59;;;;;;;;;;;16.50;62.50;;;;;;5092700;28;19904;-58
2022/05/28 02:01:25;;;;;;;;;;;16.50;62.40;;;;;;5092493;28;19915;-58
2022/05/28 02:03:52;;;;;;;;;;;16.50;62.50;;;;;;5087006;28;19911;-58
2022/05/28 02:06:18;;;;;;;;;;;16.50;62.40;;;;;;5088397;28;19942;-58
2022/05/28 02:08:44;;;;;;;;;;;16.40;62.30;;;;;;5090615;28;20002;-58
2022/05/28 02:11:10;;;;;;;;;;;16.40;62.40;;;;;;5086775;28;19908;-58
2022/05/28 02:13:55;;;;;;;;;;;16.40;62.50;;;;;;5092372;28;20002;-58
2022/05/28 02:16:29;;;;;;;;;;;16.30;62.50;;;;;;5092298;28;19908;-57
2022/05/28 02:19:00;;;;;;;;;;;16.30;62.40;;;;;;5092419;28;19908;-58
2022/05/28 02:21:42;;;;;;;;;;;16.30;62.50;;;;;;5083425;28;19911;-58
2022/05/28 02:24:17;;;;;;;;;;;16.30;62.40;;;;;;5088974;28;19992;-58
2022/05/28 02:26:50;;;;;;;;;;;16.30;62.40;;;;;;5090734;28;19916;-59
2022/05/28 02:29:16;;;;;;;;;;;16.20;62.60;;;;;;5092121;28;19946;-58
2022/05/28 02:31:45;;;;;;;;;;;16.20;62.50;;;;;;5091983;28;19904;-58
2022/05/28 02:34:12;;;;;;;;;;;16.20;62.50;;;;;;5087267;28;20288;-58
2022/05/28 02:36:37;;;;;;;;;;;16.20;62.40;;;;;;5080066;28;20386;-58
2022/05/28 02:39:03;;;;;;;;;;;16.20;62.20;;;;;;5090641;28;19999;-58
2022/05/28 02:41:28;;;;;;;;;;;16.10;62.20;;;;;;5092095;28;19904;-58
2022/05/28 02:43:54;;;;;;;;;;;16.20;62.20;;;;;;5087259;28;19965;-58
2022/05/28 02:46:20;;;;;;;;;;;16.10;62.20;;;;;;5092047;28;19915;-58
2022/05/28 02:48:45;;;;;;;;;;;16.10;62.20;;;;;;5095569;28;19994;-58
2022/05/28 02:51:12;;;;;;;;;;;16.10;62.40;;;;;;5096536;28;19904;-58
2022/05/28 02:53:38;;;;;;;;;;;16.10;62.30;;;;;;5090640;28;19995;-58
2022/05/28 02:56:04;;;;;;;;;;;16.10;62.30;;;;;;5095046;28;20011;-58
2022/05/28 02:58:30;;;;;;;;;;;16.10;62.30;;;;;;5095777;28;20360;-56
2022/05/28 03:00:56;;;;;;;;;;;16.00;62.10;;;;;;5094732;28;19995;-58
2022/05/28 03:03:21;;;;;;;;;;;16.00;62.10;;;;;;5096055;28;19908;-58
2022/05/28 03:05:48;;;;;;;;;;;16.00;62.20;;;;;;5095835;28;19912;-58
2022/05/28 03:08:13;;;;;;;;;;;16.00;62.20;;;;;;5095287;28;20326;-58
2022/05/28 03:10:39;;;;;;;;;;;16.00;62.40;;;;;;5090177;28;19912;-57
2022/05/28 03:13:06;;;;;;;;;;;16.00;62.40;;;;;;5093732;28;19908;-58
2022/05/28 03:15:32;;;;;;;;;;;16.10;62.50;;;;;;5095345;28;20460;-58
2022/05/28 03:17:59;;;;;;;;;;;16.10;62.50;;;;;;5092346;28;19908;-58
2022/05/28 03:20:25;;;;;;;;;;;16.20;62.60;;;;;;5095433;28;20317;-58
2022/05/28 03:22:51;;;;;;;;;;;16.20;62.50;;;;;;5095471;28;20041;-58
2022/05/28 03:25:17;;;;;;;;;;;16.30;62.20;;;;;;5095030;28;19962;-58
2022/05/28 03:27:42;;;;;;;;;;;16.40;62.00;;;;;;5089596;28;20002;-58
2022/05/28 03:30:08;;;;;;;;;;;16.40;61.80;;;;;;5093866;28;19908;-58
2022/05/28 03:32:33;;;;;;;;;;;16.40;61.60;;;;;;5095451;28;19904;-58
2022/05/28 03:34:59;;;;;;;;;;;16.40;61.60;;;;;;5094117;28;20279;-58
2022/05/28 03:37:24;;;;;;;;;;;16.30;62.20;;;;;;5094599;28;19916;-58
2022/05/28 03:39:50;;;;;;;;;;;16.30;61.70;;;;;;5090504;28;19915;-58
2022/05/28 03:42:15;;;;;;;;;;;16.30;61.60;;;;;;5089590;28;19950;-58
2022/05/28 03:44:41;;;;;;;;;;;16.30;61.60;;;;;;5081572;28;19958;-58
2022/05/28 03:47:07;;;;;;;;;;;16.20;61.70;;;;;;5093237;28;20387;-58
2022/05/28 03:49:34;;;;;;;;;;;16.20;61.90;;;;;;5094883;28;19904;-58
2022/05/28 03:52:01;;;;;;;;;;;16.20;61.70;;;;;;5093786;28;19938;-58
2022/05/28 03:54:27;;;;;;;;;;;16.10;61.50;;;;;;5095026;28;19915;-58
2022/05/28 03:56:55;;;;;;;;;;;16.00;61.60;;;;;;5094686;28;20407;-58
2022/05/28 03:59:20;;;;;;;;;;;16.00;61.70;;;;;;5087229;28;19949;-58
2022/05/28 04:01:46;;;;;;;;;;;15.90;62.50;;;;;;5090970;28;19920;-58
2022/05/28 04:04:11;;;;;;;;;;;15.90;62.50;;;;;;5094673;28;19935;-58
2022/05/28 04:06:37;;;;;;;;;;;15.90;62.00;;;;;;5094304;28;19904;-58
2022/05/28 04:09:03;;;;;;;;;;;15.90;62.00;;;;;;5091603;28;19949;-58
2022/05/28 04:11:29;;;;;;;;;;;15.90;62.10;;;;;;5100571;28;19923;-58
2022/05/28 04:13:54;;;;;;;;;;;15.90;62.10;;;;;;5094994;28;19904;-57
2022/05/28 04:16:20;;;;;;;;;;;15.90;62.20;;;;;;5094707;28;19908;-58
2022/05/28 04:18:46;;;;;;;;;;;15.90;62.30;;;;;;5091221;28;19920;-58
2022/05/28 04:21:11;;;;;;;;;;;16.00;62.50;;;;;;5094386;28;20334;-57
2022/05/28 04:23:37;;;;;;;;;;;16.20;62.80;;;;;;5085449;28;19904;-58
2022/05/28 04:26:03;;;;;;;;;;;16.50;62.20;;;;;;5093745;28;20008;-58
2022/05/28 04:28:28;;;;;;;;;;;16.60;62.00;;;;;;5094592;28;20363;-58
2022/05/28 04:30:54;;;;;;;;;;;16.80;61.70;;;;;;5094491;28;19915;-56
2022/05/28 04:33:19;;;;;;;;;;;16.90;61.30;;;;;;5094331;28;19904;-59
2022/05/28 04:35:45;;;;;;;;;;;16.90;61.10;;;;;;5088124;28;19930;-58
2022/05/28 04:38:10;;;;;;;;;;;16.90;60.80;;;;;;5087465;28;20423;-58
2022/05/28 04:40:36;;;;;;;;;;;16.80;60.90;;;;;;5094032;28;19912;-58
2022/05/28 04:43:01;;;;;;;;;;;16.80;61.20;;;;;;5093339;28;19912;-58
2022/05/28 04:45:27;;;;;;;;;;;16.90;61.50;;;;;;5094081;28;19938;-58
2022/05/28 04:47:52;;;;;;;;;;;17.10;61.30;;;;;;5094262;28;19911;-58
2022/05/28 04:50:18;;;;;;;;;;;17.20;60.90;;;;;;5090615;28;20407;-58
2022/05/28 04:52:44;;;;;;;;;;;17.20;60.70;;;;;;5085456;28;19912;-58
2022/05/28 04:55:10;;;;;;;;;;;17.20;60.60;;;;;;5089370;28;19915;-58
2022/05/28 04:57:36;;;;;;;;;;;17.10;60.70;;;;;;5094197;28;19919;-58
2022/05/28 05:00:01;;;;;;;;;;;17.10;60.70;;;;;;5094156;28;19908;-58
2022/05/28 05:02:27;;;;;;;;;;;17.10;60.90;;;;;;5089668;28;19995;-58
2022/05/28 05:04:56;;;;;;;;;;;17.00;61.00;;;;;;5093998;28;19947;-58
2022/05/28 05:07:22;;;;;;;;;;;17.00;60.90;;;;;;5091909;28;19904;-59
2022/05/28 05:09:47;;;;;;;;;;;16.90;61.00;;;;;;5091956;28;19933;-59
2022/05/28 05:12:13;;;;;;;;;;;16.90;61.10;;;;;;5093136;28;20044;-59
2022/05/28 05:14:38;;;;;;;;;;;16.90;61.20;;;;;;5093487;28;20325;-59
2022/05/28 05:17:04;;;;;;;;;;;16.80;61.30;;;;;;5093861;28;19911;-59
2022/05/28 05:19:29;;;;;;;;;;;16.80;61.40;;;;;;5093531;28;19912;-59
2022/05/28 05:21:55;;;;;;;;;;;16.70;61.20;;;;;;5093327;28;19904;-59
2022/05/28 05:24:22;;;;;;;;;;;16.70;61.50;;;;;;5092374;28;20528;-59
2022/05/28 05:26:47;;;;;;;;;;;16.70;61.50;;;;;;5091553;28;19916;-59
2022/05/28 05:29:13;;;;;;;;;;;16.70;61.60;;;;;;5093446;28;20279;-59
2022/05/28 05:31:40;;;;;;;;;;;16.80;61.70;;;;;;5093494;28;19904;-59
2022/05/28 05:34:06;;;;;;;;;;;16.80;61.60;;;;;;5093225;28;19904;-59
2022/05/28 05:36:32;;;;;;;;;;;16.90;61.50;;;;;;5093033;28;19908;-59
2022/05/28 05:38:57;;;;;;;;;;;17.00;61.60;;;;;;5092612;28;20373;-59
2022/05/28 05:41:23;;;;;;;;;;;17.00;61.40;;;;;;5092384;28;19912;-59
2022/05/28 05:43:48;;;;;;;;;;;17.10;61.20;;;;;;5091303;28;19911;-59
2022/05/28 05:46:14;;;;;;;;;;;17.10;61.10;;;;;;5093439;28;19914;-59
2022/05/28 05:48:39;;;;;;;;;;;17.20;61.00;;;;;;5093045;28;19955;-59
2022/05/28 05:51:06;;;;;;;;;;;17.20;61.00;;;;;;5092730;28;19961;-58
2022/05/28 05:53:32;;;;;;;;;;;17.20;61.00;;;;;;5092878;28;19998;-59
2022/05/28 05:55:57;;;;;;;;;;;17.20;61.00;;;;;;5090529;28;19995;-59
2022/05/28 05:58:22;;;;;;;;;;;17.20;60.90;;;;;;5092167;28;20023;-59
2022/05/28 06:00:48;;;;;;;;;;;17.30;61.10;;;;;;5087178;28;19990;-59
2022/05/28 06:03:15;;;;;;;;;;;17.30;60.90;;;;;;5092816;28;19994;-59
2022/05/28 06:05:41;;;;;;;;;;;17.30;60.90;;;;;;5092865;28;20319;-59
2022/05/28 06:08:06;;;;;;;;;;;17.30;60.90;;;;;;5091947;28;19939;-59
2022/05/28 06:10:32;;;;;;;;;;;17.30;60.90;;;;;;5092822;28;19947;-59
2022/05/28 06:12:57;;;;;;;;;;;17.30;61.00;;;;;;5092562;28;19926;-59
2022/05/28 06:15:23;;;;;;;;;;;17.30;60.90;;;;;;5091065;28;19919;-59
2022/05/28 06:17:48;;;;;;;;;;;17.40;61.10;;;;;;5089760;28;19904;-59
2022/05/28 06:20:14;;;;;;;;;;;17.40;61.20;;;;;;5092734;28;20004;-59
2022/05/28 06:22:39;;;;;;;;;;;17.50;61.20;;;;;;5093506;28;20403;-57
2022/05/28 06:25:05;;;;;;;;;;;17.60;60.90;;;;;;5098291;28;19935;-57
2022/05/28 06:27:31;;;;;;;;;;;17.60;60.80;;;;;;5099678;28;20371;-57
2022/05/28 06:29:57;;;;;;;;;;;17.70;60.80;;;;;;5099339;28;19915;-58
2022/05/28 06:32:22;;;;;;;;;;;17.70;60.60;;;;;;5098518;28;19904;-57
2022/05/28 06:34:48;;;;;;;;;;;17.70;60.70;;;;;;5093255;28;20300;-57
2022/05/28 06:37:15;;;;;;;;;;;17.70;60.50;;;;;;5099092;28;19904;-57
2022/05/28 06:39:40;;;;;;;;;;;17.70;60.70;;;;;;5087528;28;19999;-57
2022/05/28 06:42:06;;;;;;;;;;;17.70;60.60;;;;;;5098457;28;19991;-57
2022/05/28 06:44:32;;;;;;;;;;;17.80;60.60;;;;;;5099168;28;19904;-57
2022/05/28 06:46:57;;;;;;;;;;;17.80;60.40;;;;;;5099236;28;19904;-57
2022/05/28 06:49:23;;;;;;;;;;;17.80;60.40;;;;;;5098552;28;19911;-57
2022/05/28 06:51:50;;;;;;;;;;;17.80;60.40;;;;;;5097941;28;19933;-56
2022/05/28 06:54:15;;;;;;;;;;;17.90;60.40;;;;;;5098920;28;19911;-57
2022/05/28 06:56:41;;;;;;;;;;;17.90;60.30;;;;;;5099245;28;19912;-57
2022/05/28 06:59:06;;;;;;;;;;;17.90;60.30;;;;;;5098198;28;20342;-57
2022/05/28 07:01:32;;;;;;;;;;;18.00;60.30;;;;;;5099099;28;19931;-57
2022/05/28 07:03:57;;;;;;;;;;;18.00;60.40;;;;;;5099083;28;19911;-57
2022/05/28 07:06:23;;;;;;;;;;;18.00;60.30;;;;;;5098408;28;19904;-59
2022/05/28 07:08:49;;;;;;;;;;;18.20;60.50;;;;;;5094760;28;19957;-60
2022/05/28 07:11:14;;;;;;;;;;;18.30;60.40;;;;;;5099084;28;19945;-59
2022/05/28 07:13:40;;;;;;;;;;;18.40;60.30;;;;;;5098955;28;19911;-60
2022/05/28 07:16:06;;;;;;;;;;;18.40;59.90;;;;;;5098968;28;19999;-59
2022/05/28 07:18:33;;;;;;;;;;;18.50;59.80;;;;;;5099106;28;19926;-59
2022/05/28 07:20:58;;;;;;;;;;;18.60;59.60;;;;;;5098839;28;19904;-59
2022/05/28 07:23:25;;;;;;;;;;;18.60;59.60;;;;;;5092790;28;19908;-59
2022/05/28 07:26:04;;;;;;;;;;;18.60;59.50;;;;;;5091244;28;19917;-59
2022/05/28 07:28:33;;;;;;;;;;;18.60;59.70;;;;;;5098662;28;19904;-59
2022/05/28 07:31:07;;;;;;;;;;;18.60;59.60;;;;;;5098758;28;19939;-59
2022/05/28 07:33:34;;;;;;;;;;;18.70;59.50;;;;;;5097523;28;19994;-59
2022/05/28 07:36:00;;;;;;;;;;;18.80;59.70;;;;;;5095488;28;19908;-59
2022/05/28 07:38:27;;;;;;;;;;;18.90;60.00;;;;;;5087242;28;19922;-59
2022/05/28 07:40:52;;;;;;;;;;;19.10;59.80;;;;;;5093950;28;20342;-59
2022/05/28 07:43:18;;;;;;;;;;;19.20;59.50;;;;;;5092277;28;20007;-59
2022/05/28 07:45:44;;;;;;;;;;;19.40;59.30;;;;;;5093798;28;19915;-59
2022/05/28 07:48:11;;;;;;;;;;;19.40;59.40;;;;;;5094250;28;19911;-59
2022/05/28 07:50:37;;;;;;;;;;;19.50;58.70;;;;;;5095212;28;19969;-58
2022/05/28 07:53:03;;;;;;;;;;;19.50;58.90;;;;;;5094909;28;19908;-60
2022/05/28 07:55:28;;;;;;;;;;;19.50;58.80;;;;;;5093860;28;19907;-60
2022/05/28 07:57:54;;;;;;;;;;;19.50;58.70;;;;;;5093826;28;19912;-59
2022/05/28 08:00:20;;;;;;;;;;;19.50;58.60;;;;;;5094347;28;20371;-59
2022/05/28 08:02:45;;;;;;;;;;;19.50;58.40;;;;;;5093301;28;19927;-59
2022/05/28 08:05:11;;;;;;;;;;;19.40;58.40;;;;;;5091280;28;20264;-59
2022/05/28 08:07:37;;;;;;;;;;;19.40;58.60;;;;;;5092247;28;19908;-59
2022/05/28 08:10:03;;;;;;;;;;;19.30;58.60;;;;;;5093022;28;19904;-60
2022/05/28 08:12:28;;;;;;;;;;;19.40;58.80;;;;;;5093070;28;19919;-59
2022/05/28 08:14:54;;;;;;;;;;;19.50;58.90;;;;;;5087214;28;20402;-58
2022/05/28 08:17:19;;;;;;;;;;;19.50;58.90;;;;;;5079781;28;19936;-59
2022/05/28 08:19:45;;;;;;;;;;;19.60;59.00;;;;;;5093171;28;20382;-59
2022/05/28 08:24:55;;;;;;;;;;;19.90;58.70;;;;;;5091552;28;19915;-59
2022/05/28 08:27:20;;;;;;;;;;;20.00;58.30;;;;;;5094032;28;20280;-59
2022/05/28 08:29:46;;;;;;;;;;;20.00;58.30;;;;;;5093170;28;19915;-58
2022/05/28 08:32:16;;;;;;;;;;;20.10;58.10;;;;;;5093577;28;19915;-59
2022/05/28 08:34:42;;;;;;;;;;;20.10;58.10;;;;;;5092468;28;19957;-59
2022/05/28 08:37:08;;;;;;;;;;;20.10;57.80;;;;;;5091657;28;20397;-59
2022/05/28 08:39:33;;;;;;;;;;;20.10;57.80;;;;;;5092818;28;19908;-60
2022/05/28 08:41:59;;;;;;;;;;;20.10;57.80;;;;;;5092779;28;19904;-60
2022/05/28 08:44:31;;;;;;;;;;;20.20;57.90;;;;;;5092554;28;19904;-59
2022/05/28 08:47:03;;;;;;;;;;;20.20;57.70;;;;;;5091178;28;20094;-59
2022/05/28 08:49:31;;;;;;;;;;;20.20;57.40;;;;;;5091864;28;20355;-59
2022/05/28 08:52:13;;;;;;;;;;;20.20;57.50;;;;;;5081516;28;19948;-60
2022/05/28 08:55:00;;;;;;;;;;;20.20;57.40;;;;;;5094172;28;19908;-59
2022/05/28 08:57:38;;;;;;;;;;;20.20;57.50;;;;;;5089230;28;19916;-60
2022/05/28 09:00:12;;;;;;;;;;;20.20;57.70;;;;;;5094174;28;19904;-60
2022/05/28 09:02:39;;;;;;;;;;;20.20;57.80;;;;;;5092205;28;19943;-59
2022/05/28 09:05:14;;;;;;;;;;;20.20;57.70;;;;;;5093249;28;19914;-59
2022/05/28 09:07:40;;;;;;;;;;;20.20;57.60;;;;;;5092281;28;19908;-59
2022/05/28 09:10:06;;;;;;;;;;;20.20;57.40;;;;;;5100026;28;19908;-60
2022/05/28 09:12:42;;;;;;;;;;;20.10;57.10;;;;;;5093748;28;19904;-60
2022/05/28 09:15:08;;;;;;;;;;;20.00;57.00;;;;;;5085879;28;20351;-59
2022/05/28 09:17:36;;;;;;;;;;;20.00;57.20;;;;;;5093614;28;19907;-60
2022/05/28 09:20:07;;;;;;;;;;;19.90;58.00;;;;;;5091546;28;19912;-59
2022/05/28 09:22:33;;;;;;;;;;;19.90;57.50;;;;;;5082090;28;20257;-60
2022/05/28 09:24:58;;;;;;;;;;;19.90;57.30;;;;;;5086663;28;19904;-60
2022/05/28 09:27:36;;;;;;;;;;;19.80;57.20;;;;;;5093025;28;19916;-59
2022/05/28 09:30:08;;;;;;;;;;;19.80;57.20;;;;;;5093398;28;19959;-59
2022/05/28 09:32:39;;;;;;;;;;;19.80;57.30;;;;;;5093625;28;19904;-60
2022/05/28 09:35:23;;;;;;;;;;;19.80;57.10;;;;;;5092495;28;19915;-60
2022/05/28 09:37:52;;;;;;;;;;;19.70;57.80;;;;;;5089379;28;19908;-60
2022/05/28 09:40:18;;;;;;;;;;;19.60;57.20;;;;;;5092609;28;20293;-60
2022/05/28 09:43:09;;;;;;;;;;;19.60;57.50;;;;;;5088250;28;19915;-59
2022/05/28 09:46:04;;;;;;;;;;;19.60;57.20;;;;;;5056458;28;19951;-60
2022/05/28 09:48:30;;;;;;;;;;;19.60;57.50;;;;;;5063057;28;19939;-60
2022/05/28 09:50:56;;;;;;;;;;;19.60;57.70;;;;;;5091424;28;20304;-60
2022/05/28 09:56:36;;;;;;;;;;;19.70;57.90;;;;;;5085870;28;20409;-60
2022/05/28 09:59:16;;;;;;;;;;;19.80;57.80;;;;;;5081300;28;20241;-58
2022/05/28 10:01:50;;;;;;;;;;;19.80;57.60;;;;;;5088683;28;19958;-60
2022/05/28 10:04:31;;;;;;;;;;;19.80;58.00;;;;;;5088831;28;19904;-60
2022/05/28 10:07:02;;;;;;;;;;;19.90;57.50;;;;;;5090080;28;20332;-59
2022/05/28 10:09:30;;;;;;;;;;;19.90;57.80;;;;;;5091905;28;19908;-59
2022/05/28 10:11:58;;;;;;;;;;;20.00;57.50;;;;;;5089068;28;19995;-58
2022/05/28 10:14:24;;;;;;;;;;;20.10;57.50;;;;;;5092487;28;20006;-60
2022/05/28 10:16:53;;;;;;;;;;;20.20;57.20;;;;;;5084454;28;20348;-60
2022/05/28 10:19:25;;;;;;;;;;;20.20;57.30;;;;;;5090457;28;19904;-59
2022/05/28 10:21:52;;;;;;;;;;;20.20;57.10;;;;;;5085670;28;19922;-60
2022/05/28 10:24:19;;;;;;;;;;;20.20;57.10;;;;;;5085592;28;20276;-59
2022/05/28 10:26:58;;;;;;;;;;;20.20;57.10;;;;;;5091850;28;19963;-59
2022/05/28 10:29:27;;;;;;;;;;;20.20;57.00;;;;;;5089002;28;19961;-60
2022/05/28 10:31:53;;;;;;;;;;;20.20;57.20;;;;;;5090725;28;19904;-59
2022/05/28 10:34:35;;;;;;;;;;;20.10;57.30;;;;;;5084156;28;20252;-59
2022/05/28 10:37:09;;;;;;;;;;;20.10;57.40;;;;;;5090800;28;19916;-59
2022/05/28 10:39:37;;;;;;;;;;;20.10;57.40;;;;;;5091471;28;19911;-60
2022/05/28 10:42:03;;;;;;;;;;;20.10;57.70;;;;;;5092707;28;19911;-59
2022/05/28 10:44:28;;;;;;;;;;;20.10;57.00;;;;;;5092459;28;19905;-58
2022/05/28 10:46:54;;;;;;;;;;;20.10;57.10;;;;;;5092304;28;19908;-59
2022/05/28 10:49:38;;;;;;;;;;;20.20;57.40;;;;;;5088759;28;20299;-60
2022/05/28 10:52:12;;;;;;;;;;;20.20;57.40;;;;;;5087583;28;19904;-59
2022/05/28 10:54:50;;;;;;;;;;;20.20;57.20;;;;;;5088736;28;19936;-59
2022/05/28 10:57:34;;;;;;;;;;;20.30;57.20;;;;;;5089350;28;19991;-60
2022/05/28 11:00:11;;;;;;;;;;;20.20;57.30;;;;;;5090327;28;19904;-60
2022/05/28 11:02:45;;;;;;;;;;;20.20;57.20;;;;;;5090372;28;19911;-59
2022/05/28 11:05:11;;;;;;;;;;;20.10;57.00;;;;;;5090442;28;19904;-60
2022/05/28 11:07:46;;;;;;;;;;;20.00;57.00;;;;;;5090252;28;20274;-60
2022/05/28 11:10:11;;;;;;;;;;;20.00;57.00;;;;;;5096114;28;19991;-60
2022/05/28 11:12:40;;;;;;;;;;;19.90;57.40;;;;;;5094753;28;19954;-60
2022/05/28 11:15:05;;;;;;;;;;;19.80;57.60;;;;;;5095691;28;19944;-60
2022/05/28 11:17:46;;;;;;;;;;;19.80;57.80;;;;;;5095862;28;20272;-60
2022/05/28 11:20:18;;;;;;;;;;;19.70;57.90;;;;;;5091700;28;19961;-59
2022/05/28 11:22:49;;;;;;;;;;;19.70;57.80;;;;;;5091125;28;19911;-59
2022/05/28 11:25:17;;;;;;;;;;;19.70;57.90;;;;;;5088174;28;19959;-59
2022/05/28 11:28:04;;;;;;;;;;;19.70;57.80;;;;;;5095969;28;20348;-60
2022/05/28 11:30:32;;;;;;;;;;;19.70;57.80;;;;;;5064120;28;19961;-59
2022/05/28 11:33:00;;;;;;;;;;;19.70;57.90;;;;;;5096002;28;19904;-60
2022/05/28 11:35:39;;;;;;;;;;;19.70;58.10;;;;;;5089077;28;19908;-60
2022/05/28 11:38:07;;;;;;;;;;;19.70;57.90;;;;;;5090322;28;19908;-60
2022/05/28 11:40:47;;;;;;;;;;;19.70;58.00;;;;;;5091923;28;20351;-60
2022/05/28 11:43:16;;;;;;;;;;;19.70;57.90;;;;;;5095518;28;19911;-59
2022/05/28 11:46:08;;;;;;;;;;;19.70;57.90;;;;;;5094566;28;19907;-60
2022/05/28 11:51:27;;;;;;;;;;;19.60;57.80;;;;;;5057751;28;19912;-60
2022/05/28 11:51:29;;;;;;;;;;;19.60;57.90;;;;;;5095203;28;20037;-60
2022/05/28 11:53:57;;;;;;;;;;;19.70;58.00;;;;;;5095110;28;19915;-60
2022/05/28 11:56:30;;;;;;;;;;;19.70;58.00;;;;;;5090577;28;20424;-59
2022/05/28 11:58:59;;;;;;;;;;;19.70;57.90;;;;;;5093500;28;20417;-60
2022/05/28 12:01:27;;;;;;;;;;;19.60;57.60;;;;;;5085576;28;19912;-58
2022/05/28 12:03:53;;;;;;;;;;;19.50;57.90;;;;;;5095346;28;19912;-60
2022/05/28 12:06:22;;;;;;;;;;;19.50;57.90;;;;;;5093864;28;19934;-60
2022/05/28 12:08:48;;;;;;;;;;;19.50;58.10;;;;;;5092370;28;20321;-59
2022/05/28 12:11:19;;;;;;;;;;;19.50;58.10;;;;;;5090468;28;19947;-59
2022/05/28 12:13:47;;;;;;;;;;;19.50;58.00;;;;;;5090113;28;19908;-60
2022/05/28 12:16:21;;;;;;;;;;;19.60;57.90;;;;;;5091355;28;19915;-60
2022/05/28 12:18:56;;;;;;;;;;;19.60;58.10;;;;;;5094802;28;20272;-60
2022/05/28 12:21:42;;;;;;;;;;;19.60;58.20;;;;;;5093693;28;19904;-60
2022/05/28 12:24:19;;;;;;;;;;;19.70;58.40;;;;;;5093508;28;20356;-60
2022/05/28 12:26:49;;;;;;;;;;;19.80;58.40;;;;;;5094392;28;20349;-59
2022/05/28 12:29:29;;;;;;;;;;;19.80;58.30;;;;;;5091905;28;20346;-60
2022/05/28 12:31:55;;;;;;;;;;;19.90;58.40;;;;;;5089999;28;20002;-56
2022/05/28 12:34:22;;;;;;;;;;;19.90;58.10;;;;;;5089013;28;20015;-59
2022/05/28 12:36:50;;;;;;;;;;;19.90;58.00;;;;;;5090543;28;19912;-60
2022/05/28 12:39:28;;;;;;;;;;;19.90;57.70;;;;;;5092549;28;20264;-60
2022/05/28 12:41:55;;;;;;;;;;;19.90;57.60;;;;;;5091668;28;19904;-60
2022/05/28 12:44:21;;;;;;;;;;;19.90;57.60;;;;;;5094408;28;19998;-59
2022/05/28 12:46:56;;;;;;;;;;;19.80;57.80;;;;;;5085873;28;20375;-60
2022/05/28 12:49:22;;;;;;;;;;;19.90;57.70;;;;;;5090485;28;20002;-60
2022/05/28 12:52:06;;;;;;;;;;;19.90;57.70;;;;;;5091965;28;19996;-60
2022/05/28 12:54:34;;;;;;;;;;;19.80;57.60;;;;;;5090176;28;20351;-60
2022/05/28 12:57:22;;;;;;;;;;;19.80;58.00;;;;;;5093038;28;19907;-60
2022/05/28 12:59:58;;;;;;;;;;;19.80;58.20;;;;;;5077279;28;20364;-59
2022/05/28 13:02:28;;;;;;;;;;;19.80;58.40;;;;;;5087713;28;20299;-59
2022/05/28 13:04:58;;;;;;;;;;;19.80;58.30;;;;;;5092103;28;20349;-60
2022/05/28 13:07:35;;;;;;;;;;;19.80;58.40;;;;;;5092181;28;19912;-60
2022/05/28 13:10:06;;;;;;;;;;;19.80;58.60;;;;;;5092036;28;20007;-57
2022/05/28 13:12:47;;;;;;;;;;;19.80;58.60;;;;;;5081314;28;19909;-60
2022/05/28 13:15:31;;;;;;;;;;;19.70;58.30;;;;;;5087613;28;19916;-60
2022/05/28 13:18:02;;;;;;;;;;;19.60;58.40;;;;;;5077815;28;19988;-60
2022/05/28 13:20:48;;;;;;;;;;;19.60;58.60;;;;;;5091529;28;19947;-60
2022/05/28 13:23:13;;;;;;;;;;;19.50;58.50;;;;;;5090410;28;20288;-60
2022/05/28 13:25:39;;;;;;;;;;;19.50;58.20;;;;;;5088477;28;19920;-60
2022/05/28 13:28:07;;;;;;;;;;;19.50;58.50;;;;;;5092448;28;19927;-60
2022/05/28 13:30:45;;;;;;;;;;;19.50;58.70;;;;;;5085942;28;19912;-59
2022/05/28 13:33:12;;;;;;;;;;;19.40;58.30;;;;;;5088888;28;19904;-59
2022/05/28 13:35:40;;;;;;;;;;;19.40;58.60;;;;;;5090512;28;20338;-59
2022/05/28 13:38:06;;;;;;;;;;;19.40;58.80;;;;;;5088896;28;19947;-59
2022/05/28 13:40:32;;;;;;;;;;;19.40;59.50;;;;;;5086044;28;19954;-60
2022/05/28 13:43:09;;;;;;;;;;;19.40;59.80;;;;;;5081847;28;19934;-60
2022/05/28 13:45:37;;;;;;;;;;;19.40;59.30;;;;;;5090966;28;19916;-60
2022/05/28 13:48:04;;;;;;;;;;;19.30;59.20;;;;;;5091030;28;19908;-60
2022/05/28 13:50:29;;;;;;;;;;;19.30;59.40;;;;;;5087284;28;19930;-59
2022/05/28 13:52:58;;;;;;;;;;;19.40;59.40;;;;;;5084766;28;19912;-60
2022/05/28 13:55:25;;;;;;;;;;;19.40;59.40;;;;;;5086708;28;20010;-58
2022/05/28 13:57:51;;;;;;;;;;;19.40;59.30;;;;;;5085530;28;20010;-60
2022/05/28 14:00:16;;;;;;;;;;;19.30;59.10;;;;;;5089112;28;20007;-59
2022/05/28 14:02:57;;;;;;;;;;;19.30;59.10;;;;;;5085935;28;19996;-59
2022/05/28 14:05:24;;;;;;;;;;;19.20;59.50;;;;;;5083069;28;20003;-59
2022/05/28 14:07:51;;;;;;;;;;;19.20;59.60;;;;;;5086668;28;20352;-60
2022/05/28 14:10:18;;;;;;;;;;;19.10;59.20;;;;;;5086343;28;20293;-59
2022/05/28 14:12:44;;;;;;;;;;;19.10;59.40;;;;;;5087062;28;19943;-60
2022/05/28 14:15:17;;;;;;;;;;;19.20;59.70;;;;;;5077426;28;19987;-60
2022/05/28 14:17:43;;;;;;;;;;;19.20;60.30;;;;;;5084203;28;19908;-60
2022/05/28 14:20:15;;;;;;;;;;;19.20;60.30;;;;;;5087990;28;20915;-59
2022/05/28 14:22:58;;;;;;;;;;;19.20;59.90;;;;;;5082892;28;20006;-60
2022/05/28 14:25:24;;;;;;;;;;;19.20;59.00;;;;;;5086326;28;19970;-60
2022/05/28 14:27:51;;;;;;;;;;;19.10;59.20;;;;;;5088649;28;19943;-59
2022/05/28 14:30:18;;;;;;;;;;;19.20;60.00;;;;;;5083725;28;19955;-60